createdAt,value
2022-12-01T00:00:30.864Z,9.80
2022-12-01T00:03:01.131Z,9.03
2022-12-01T00:05:30.821Z,7.27
2022-12-01T00:08:00.430Z,5.47
2022-12-01T00:10:30.171Z,4.57
2022-12-01T00:13:01.243Z,9.23
2022-12-01T00:15:38.203Z,7.60
2022-12-01T00:18:07.999Z,7.87
2022-12-01T00:20:38.213Z,11.73
2022-12-01T00:23:09.179Z,8.33
2022-12-01T00:25:39.428Z,9.23
2022-12-01T00:28:09.736Z,11.63
2022-12-01T00:30:39.758Z,4.63
2022-12-01T00:33:09.462Z,8.63
2022-12-01T00:35:42.269Z,8.40
2022-12-01T00:38:12.624Z,11.10
2022-12-01T00:40:42.316Z,7.83
2022-12-01T00:43:12.443Z,10.00
2022-12-01T00:45:42.212Z,11.43
2022-12-01T00:48:12.302Z,10.90
2022-12-01T00:50:54.549Z,13.50
2022-12-01T00:53:25.812Z,8.23
2022-12-01T00:55:55.665Z,7.60
2022-12-01T00:58:25.980Z,8.80
2022-12-01T01:01:00.258Z,11.43
2022-12-01T01:03:30.740Z,12.50
2022-12-01T01:06:05.265Z,14.20
2022-12-01T01:08:34.852Z,17.30
2022-12-01T01:11:05.115Z,13.67
2022-12-01T01:13:34.947Z,16.53
2022-12-01T01:16:05.370Z,12.20
2022-12-01T01:18:34.959Z,13.80
2022-12-01T01:21:08.451Z,10.37
2022-12-01T01:23:40.142Z,13.83
2022-12-01T01:26:10.865Z,18.10
2022-12-01T01:28:42.343Z,18.77
2022-12-01T01:31:12.427Z,10.57
2022-12-01T01:33:41.998Z,20.17
2022-12-01T01:36:11.562Z,15.10
2022-12-01T01:38:41.052Z,17.27
2022-12-01T01:41:10.515Z,17.73
2022-12-01T01:43:45.943Z,20.63
2022-12-01T01:46:22.607Z,15.98
2022-12-01T01:48:56.611Z,20.47
2022-12-01T01:51:31.819Z,20.57
2022-12-01T01:56:34.450Z,18.57
2022-12-01T01:59:04.453Z,18.87
2022-12-01T02:01:34.093Z,18.47
2022-12-01T02:04:03.732Z,24.30
2022-12-01T02:06:33.195Z,20.80
2022-12-01T02:09:03.627Z,23.40
2022-12-01T02:11:36.474Z,25.57
2022-12-01T02:14:16.313Z,23.67
2022-12-01T02:16:49.379Z,18.83
2022-12-01T02:19:27.233Z,21.63
2022-12-01T02:22:14.476Z,18.63
2022-12-01T02:24:45.129Z,23.03
2022-12-01T02:27:15.374Z,25.20
2022-12-01T02:29:48.548Z,20.20
2022-12-01T02:32:18.589Z,21.90
2022-12-01T02:34:57.454Z,21.47
2022-12-01T02:37:33.370Z,25.43
2022-12-01T02:40:21.883Z,19.80
2022-12-01T02:42:55.078Z,13.87
2022-12-01T02:45:28.015Z,17.67
2022-12-01T02:47:58.566Z,18.90
2022-12-01T02:50:28.195Z,20.00
2022-12-01T02:52:58.130Z,32.23
2022-12-01T02:55:30.062Z,24.70
2022-12-01T02:57:59.716Z,20.87
2022-12-01T03:00:30.304Z,35.90
2022-12-01T03:03:04.162Z,30.27
2022-12-01T03:05:43.062Z,31.70
2022-12-01T03:08:29.371Z,26.37
2022-12-01T03:10:59.735Z,30.73
2022-12-01T03:13:34.597Z,19.93
2022-12-01T03:16:04.207Z,20.93
2022-12-01T03:18:34.555Z,13.23
2022-12-01T03:21:22.930Z,19.83
2022-12-01T03:23:57.458Z,12.97
2022-12-01T03:26:27.168Z,15.13
2022-12-01T03:29:07.521Z,15.07
2022-12-01T03:31:40.695Z,13.70
2022-12-01T03:34:13.762Z,9.00
2022-12-01T03:36:54.996Z,16.57
2022-12-01T03:39:26.190Z,8.80
2022-12-01T03:41:58.326Z,7.53
2022-12-01T03:44:31.879Z,9.67
2022-12-01T03:47:04.093Z,8.67
2022-12-01T03:49:34.464Z,4.50
2022-12-01T03:52:13.541Z,4.50
2022-12-01T03:54:55.450Z,4.83
2022-12-01T03:57:33.070Z,2.23
2022-12-01T04:00:04.198Z,1.90
2022-12-01T04:02:42.079Z,3.13
2022-12-01T04:05:12.118Z,1.20
2022-12-01T04:07:42.288Z,0.97
2022-12-01T04:10:12.428Z,0.80
2022-12-01T04:12:42.145Z,1.03
2022-12-01T04:15:13.216Z,1.13
2022-12-01T04:17:46.964Z,1.40
2022-12-01T04:20:17.614Z,2.33
2022-12-01T04:22:47.735Z,2.00
2022-12-01T04:25:17.674Z,2.87
2022-12-01T04:27:47.334Z,3.70
2022-12-01T04:30:16.910Z,2.67
2022-12-01T04:32:46.401Z,6.00
2022-12-01T04:35:16.396Z,4.47
2022-12-01T04:37:46.463Z,3.77
2022-12-01T04:40:16.160Z,2.13
2022-12-01T04:42:46.453Z,3.88
2022-12-01T04:45:16.446Z,5.35
2022-12-01T04:47:46.111Z,2.63
2022-12-01T04:50:16.040Z,4.13
2022-12-01T04:52:45.605Z,4.15
2022-12-01T04:55:16.745Z,2.65
2022-12-01T04:57:47.204Z,4.03
2022-12-01T05:00:17.052Z,4.03
2022-12-01T05:02:47.301Z,4.32
2022-12-01T05:05:17.065Z,3.90
2022-12-01T05:07:46.953Z,3.78
2022-12-01T05:10:20.034Z,4.80
2022-12-01T05:12:50.552Z,3.63
2022-12-01T05:15:20.558Z,6.13
2022-12-01T05:17:50.427Z,6.00
2022-12-01T05:20:39.650Z,2.63
2022-12-01T05:23:15.139Z,4.03
2022-12-01T05:25:46.601Z,3.00
2022-12-01T05:28:17.097Z,2.55
2022-12-01T05:30:46.887Z,2.63
2022-12-01T05:33:17.466Z,6.80
2022-12-01T05:35:47.462Z,4.25
2022-12-01T05:38:17.594Z,3.20
2022-12-01T05:40:54.037Z,3.15
2022-12-01T05:43:29.099Z,4.68
2022-12-01T05:45:59.618Z,4.60
2022-12-01T05:48:29.529Z,4.30
2022-12-01T05:50:59.659Z,1.60
2022-12-01T05:53:29.158Z,2.00
2022-12-01T05:55:59.045Z,2.15
2022-12-01T05:58:29.130Z,1.98
2022-12-01T06:00:58.840Z,2.10
2022-12-01T06:03:28.903Z,2.33
2022-12-01T06:05:58.569Z,2.45
2022-12-01T06:08:28.555Z,2.30
2022-12-01T06:10:58.144Z,1.33
2022-12-01T06:13:27.697Z,2.53
2022-12-01T06:15:58.101Z,2.05
2022-12-01T06:18:28.679Z,1.50
2022-12-01T06:21:01.327Z,1.80
2022-12-01T06:23:31.523Z,6.30
2022-12-01T06:26:01.098Z,4.05
2022-12-01T06:28:31.176Z,2.22
2022-12-01T06:31:03.422Z,3.13
2022-12-01T06:33:34.445Z,2.63
2022-12-01T06:36:05.439Z,2.97
2022-12-01T06:38:36.778Z,4.95
2022-12-01T06:41:07.725Z,4.75
2022-12-01T06:43:41.067Z,5.95
2022-12-01T06:46:11.000Z,3.08
2022-12-01T06:48:41.640Z,2.65
2022-12-01T06:51:11.722Z,1.85
2022-12-01T06:53:41.739Z,3.05
2022-12-01T06:56:11.503Z,1.10
2022-12-01T06:58:41.387Z,1.58
2022-12-01T07:01:11.705Z,2.33
2022-12-01T07:03:41.795Z,4.03
2022-12-01T07:06:11.801Z,3.03
2022-12-01T07:08:41.802Z,2.13
2022-12-01T07:11:13.421Z,1.70
2022-12-01T07:13:44.141Z,2.10
2022-12-01T07:16:14.058Z,2.20
2022-12-01T07:18:45.863Z,4.57
2022-12-01T07:21:16.611Z,2.58
2022-12-01T07:23:46.584Z,1.60
2022-12-01T07:26:16.809Z,4.32
2022-12-01T07:28:47.338Z,15.60
2022-12-01T07:31:18.451Z,11.07
2022-12-01T07:33:49.313Z,5.43
2022-12-01T07:36:19.048Z,2.97
2022-12-01T07:38:48.826Z,3.00
2022-12-01T07:41:22.811Z,3.20
2022-12-01T07:43:53.270Z,2.97
2022-12-01T07:46:24.334Z,3.85
2022-12-01T07:48:55.567Z,7.00
2022-12-01T07:51:25.915Z,5.38
2022-12-01T07:53:56.428Z,3.38
2022-12-01T07:56:26.031Z,2.95
2022-12-01T07:58:55.630Z,2.00
2022-12-01T08:01:28.644Z,1.38
2022-12-01T08:03:59.146Z,2.15
2022-12-01T08:06:29.244Z,3.03
2022-12-01T08:08:58.862Z,2.13
2022-12-01T08:11:30.523Z,2.55
2022-12-01T08:14:00.192Z,12.30
2022-12-01T08:16:30.103Z,5.88
2022-12-01T08:19:00.949Z,4.65
2022-12-01T08:21:32.883Z,3.42
2022-12-01T08:24:02.507Z,3.80
2022-12-01T08:26:32.204Z,3.55
2022-12-01T08:29:02.098Z,3.53
2022-12-01T08:31:32.386Z,4.50
2022-12-01T08:34:01.950Z,1.38
2022-12-01T08:36:32.042Z,4.78
2022-12-01T08:39:02.176Z,3.53
2022-12-01T08:41:33.005Z,5.22
2022-12-01T08:44:02.808Z,4.03
2022-12-01T08:46:35.892Z,3.83
2022-12-01T08:49:06.882Z,4.63
2022-12-01T08:51:37.548Z,4.40
2022-12-01T08:54:07.508Z,6.10
2022-12-01T08:56:39.647Z,8.00
2022-12-01T08:59:13.630Z,9.37
2022-12-01T09:01:55.867Z,10.30
2022-12-01T09:04:26.487Z,11.27
2022-12-01T09:06:56.480Z,7.87
2022-12-01T09:09:28.380Z,10.23
2022-12-01T09:12:00.113Z,9.77
2022-12-01T09:14:30.173Z,7.70
2022-12-01T09:16:59.928Z,10.27
2022-12-01T09:19:29.493Z,10.80
2022-12-01T09:21:59.540Z,5.77
2022-12-01T09:24:29.578Z,5.83
2022-12-01T09:26:59.516Z,3.90
2022-12-01T09:29:29.313Z,4.73
2022-12-01T09:31:59.722Z,5.80
2022-12-01T09:34:30.460Z,5.43
2022-12-01T09:37:08.217Z,1.73
2022-12-01T09:39:37.875Z,2.70
2022-12-01T09:42:10.615Z,2.87
2022-12-01T09:44:43.201Z,2.73
2022-12-01T09:47:19.981Z,3.23
2022-12-01T09:50:09.555Z,2.23
2022-12-01T09:52:46.310Z,1.83
2022-12-01T09:55:17.202Z,2.43
2022-12-01T09:57:51.531Z,1.60
2022-12-01T10:00:22.615Z,3.33
2022-12-01T10:02:52.297Z,1.83
2022-12-01T10:05:29.394Z,2.60
2022-12-01T10:08:03.383Z,2.40
2022-12-01T10:10:38.083Z,2.47
2022-12-01T10:13:18.916Z,2.80
2022-12-01T10:15:52.671Z,2.63
2022-12-01T10:18:31.846Z,2.70
2022-12-01T10:21:17.586Z,2.90
2022-12-01T10:24:02.906Z,3.25
2022-12-01T10:26:32.612Z,1.70
2022-12-01T10:29:09.087Z,1.93
2022-12-01T10:31:39.130Z,2.43
2022-12-01T10:34:10.096Z,1.30
2022-12-01T10:36:39.608Z,3.53
2022-12-01T10:39:09.603Z,3.67
2022-12-01T10:41:39.721Z,3.43
2022-12-01T10:44:09.464Z,6.93
2022-12-01T10:46:49.827Z,9.77
2022-12-01T10:49:19.969Z,14.10
2022-12-01T10:51:49.641Z,19.93
2022-12-01T10:54:20.345Z,19.47
2022-12-01T10:56:51.336Z,21.93
2022-12-01T10:59:35.627Z,26.27
2022-12-01T11:02:06.202Z,22.50
2022-12-01T11:04:54.050Z,24.00
2022-12-01T11:07:30.242Z,15.20
2022-12-01T11:10:18.815Z,11.67
2022-12-01T11:12:54.496Z,14.97
2022-12-01T11:15:29.112Z,8.95
2022-12-01T11:18:01.906Z,13.67
2022-12-01T11:20:39.391Z,11.70
2022-12-01T11:23:23.053Z,14.77
2022-12-01T11:26:11.199Z,12.40
2022-12-01T11:28:43.604Z,13.30
2022-12-01T11:31:14.078Z,15.23
2022-12-01T11:33:50.140Z,11.93
2022-12-01T11:38:48.936Z,7.73
2022-12-01T11:41:31.691Z,15.80
2022-12-01T11:44:06.252Z,15.57
2022-12-01T11:46:50.158Z,14.20
2022-12-01T11:49:24.699Z,9.13
2022-12-01T11:51:54.855Z,15.13
2022-12-01T11:54:26.337Z,11.33
2022-12-01T11:57:31.743Z,8.53
2022-12-01T11:59:46.719Z,7.97
2022-12-01T12:02:33.319Z,18.33
2022-12-01T12:05:32.216Z,10.93
2022-12-01T12:08:02.239Z,17.00
2022-12-01T12:10:34.564Z,14.50
2022-12-01T12:13:10.281Z,19.67
2022-12-01T12:15:44.992Z,15.70
2022-12-01T12:18:24.188Z,21.23
2022-12-01T12:20:58.586Z,5.10
2022-12-01T12:23:28.920Z,20.47
2022-12-01T12:26:16.786Z,25.43
2022-12-01T12:28:46.508Z,21.53
2022-12-01T12:31:19.273Z,19.83
2022-12-01T12:33:56.331Z,18.00
2022-12-01T12:36:26.120Z,10.63
2022-12-01T12:38:58.908Z,10.90
2022-12-01T12:41:31.852Z,11.03
2022-12-01T12:44:14.733Z,5.67
2022-12-01T12:46:50.856Z,6.50
2022-12-01T12:49:39.319Z,8.80
2022-12-01T12:52:09.208Z,9.57
2022-12-01T12:54:41.716Z,6.70
2022-12-01T12:57:18.920Z,7.80
2022-12-01T12:59:54.055Z,4.13
2022-12-01T13:02:34.554Z,8.60
2022-12-01T13:05:11.582Z,9.27
2022-12-01T13:08:01.977Z,12.03
2022-12-01T13:10:35.397Z,7.23
2022-12-01T13:13:12.260Z,10.30
2022-12-01T13:15:42.573Z,10.63
2022-12-01T13:18:17.300Z,15.70
2022-12-01T13:20:47.611Z,11.37
2022-12-01T13:23:18.438Z,15.40
2022-12-01T13:25:49.142Z,18.70
2022-12-01T13:28:37.147Z,18.73
2022-12-01T13:31:14.077Z,16.50
2022-12-01T13:34:04.332Z,14.80
2022-12-01T13:36:50.210Z,15.80
2022-12-01T13:39:20.997Z,19.13
2022-12-01T13:42:22.825Z,10.53
2022-12-01T13:45:10.433Z,6.97
2022-12-01T13:47:40.761Z,5.63
2022-12-01T13:50:28.564Z,9.70
2022-12-01T13:53:08.084Z,6.53
2022-12-01T13:55:37.667Z,22.03
2022-12-01T13:58:07.569Z,9.30
2022-12-01T14:00:37.272Z,11.63
2022-12-01T14:03:22.619Z,7.60
2022-12-01T14:05:58.398Z,7.20
2022-12-01T14:08:28.629Z,10.57
2022-12-01T14:11:10.757Z,10.07
2022-12-01T14:14:01.069Z,7.57
2022-12-01T14:16:48.917Z,5.93
2022-12-01T14:19:28.089Z,6.50
2022-12-01T14:21:59.074Z,3.80
2022-12-01T14:24:38.616Z,4.87
2022-12-01T14:27:08.187Z,8.20
2022-12-01T14:29:43.847Z,7.97
2022-12-01T14:32:16.992Z,5.30
2022-12-01T14:34:47.280Z,9.27
2022-12-01T14:37:23.964Z,16.43
2022-12-01T14:40:20.232Z,16.63
2022-12-01T14:43:08.813Z,17.57
2022-12-01T14:45:44.113Z,16.47
2022-12-01T14:50:46.890Z,11.90
2022-12-01T14:53:23.627Z,12.83
2022-12-01T14:56:01.221Z,9.97
2022-12-01T14:58:32.196Z,4.27
2022-12-01T15:01:09.475Z,4.17
2022-12-01T15:03:39.816Z,5.07
2022-12-01T15:06:09.914Z,7.23
2022-12-01T15:08:43.425Z,9.47
2022-12-01T15:11:22.943Z,7.10
2022-12-01T15:13:53.915Z,7.63
2022-12-01T15:16:25.469Z,5.67
2022-12-01T15:18:55.831Z,10.03
2022-12-01T15:21:29.863Z,7.83
2022-12-01T15:24:03.010Z,9.60
2022-12-01T15:26:39.966Z,11.80
2022-12-01T15:29:20.432Z,9.63
2022-12-01T15:31:50.934Z,11.20
2022-12-01T15:34:29.131Z,12.37
2022-12-01T15:36:59.543Z,11.80
2022-12-01T15:39:39.054Z,11.33
2022-12-01T15:42:09.052Z,9.83
2022-12-01T15:44:38.712Z,7.73
2022-12-01T15:47:27.101Z,8.97
2022-12-01T15:49:57.496Z,10.80
2022-12-01T15:52:27.176Z,15.53
2022-12-01T15:54:57.704Z,11.67
2022-12-01T15:57:27.431Z,16.70
2022-12-01T15:59:58.104Z,11.60
2022-12-01T16:02:27.930Z,11.37
2022-12-01T16:05:16.946Z,15.23
2022-12-01T16:10:37.895Z,8.73
2022-12-01T16:13:25.724Z,8.63
2022-12-01T16:15:55.983Z,8.67
2022-12-01T16:18:34.969Z,15.50
2022-12-01T16:21:05.061Z,15.80
2022-12-01T16:23:35.082Z,8.57
2022-12-01T16:26:05.128Z,9.57
2022-12-01T16:28:38.074Z,9.90
2022-12-01T16:31:13.937Z,12.10
2022-12-01T16:33:44.873Z,9.83
2022-12-01T16:36:15.523Z,11.43
2022-12-01T16:38:45.091Z,20.87
2022-12-01T16:41:18.625Z,19.27
2022-12-01T16:44:20.338Z,24.33
2022-12-01T16:46:41.216Z,21.03
2022-12-01T16:49:10.867Z,21.47
2022-12-01T16:51:55.534Z,23.10
2022-12-01T16:54:27.194Z,19.73
2022-12-01T16:56:57.392Z,30.70
2022-12-01T16:59:27.729Z,34.40
2022-12-01T17:01:57.867Z,31.03
2022-12-01T17:04:27.971Z,34.37
2022-12-01T17:06:58.156Z,41.60
2022-12-01T17:09:28.213Z,28.30
2022-12-01T17:11:58.795Z,35.83
2022-12-01T17:14:28.542Z,39.23
2022-12-01T17:17:00.798Z,40.37
2022-12-01T17:19:30.614Z,49.13
2022-12-01T17:22:00.821Z,46.53
2022-12-01T17:24:30.751Z,50.83
2022-12-01T17:27:01.894Z,25.77
2022-12-01T17:29:31.536Z,21.70
2022-12-01T17:32:01.491Z,14.83
2022-12-01T17:34:31.557Z,15.17
2022-12-01T17:37:06.056Z,13.20
2022-12-01T17:39:36.346Z,17.63
2022-12-01T17:42:06.143Z,14.33
2022-12-01T17:44:36.209Z,8.67
2022-12-01T17:47:09.285Z,11.87
2022-12-01T17:49:42.652Z,11.80
2022-12-01T17:52:12.754Z,10.97
2022-12-01T17:54:42.465Z,10.13
2022-12-01T17:57:12.671Z,12.43
2022-12-01T17:59:43.035Z,10.23
2022-12-01T18:02:13.873Z,14.33
2022-12-01T18:04:45.409Z,16.87
2022-12-01T18:07:15.634Z,18.37
2022-12-01T18:09:45.780Z,20.57
2022-12-01T18:12:15.439Z,23.27
2022-12-01T18:14:45.053Z,20.37
2022-12-01T18:17:14.747Z,27.47
2022-12-01T18:19:44.902Z,9.93
2022-12-01T18:22:14.628Z,9.00
2022-12-01T18:24:44.634Z,1.73
2022-12-01T18:27:14.684Z,7.27
2022-12-01T18:29:45.121Z,6.17
2022-12-01T18:32:15.466Z,8.47
2022-12-01T18:34:45.760Z,5.37
2022-12-01T18:37:16.433Z,6.37
2022-12-01T18:39:46.530Z,4.93
2022-12-01T18:42:16.245Z,5.83
2022-12-01T18:44:47.431Z,4.10
2022-12-01T18:47:17.728Z,6.90
2022-12-01T18:49:47.333Z,4.70
2022-12-01T18:52:17.387Z,6.20
2022-12-01T18:54:47.519Z,12.67
2022-12-01T18:57:19.009Z,6.27
2022-12-01T18:59:48.845Z,4.93
2022-12-01T19:02:18.625Z,6.10
2022-12-01T19:04:50.781Z,12.23
2022-12-01T19:07:24.016Z,6.17
2022-12-01T19:09:58.304Z,9.93
2022-12-01T19:12:28.545Z,7.33
2022-12-01T19:14:59.440Z,7.57
2022-12-01T19:17:29.979Z,7.63
2022-12-01T19:20:00.373Z,9.90
2022-12-01T19:22:30.068Z,8.47
2022-12-01T19:25:00.609Z,4.50
2022-12-01T19:27:31.562Z,3.93
2022-12-01T19:30:02.718Z,6.57
2022-12-01T19:32:33.467Z,4.43
2022-12-01T19:35:03.139Z,10.80
2022-12-01T19:37:32.935Z,9.03
2022-12-01T19:40:02.910Z,11.03
2022-12-01T19:42:33.003Z,6.07
2022-12-01T19:45:03.439Z,9.73
2022-12-01T19:47:34.133Z,10.70
2022-12-01T19:50:04.262Z,7.93
2022-12-01T19:52:35.198Z,10.27
2022-12-01T19:55:06.980Z,7.60
2022-12-01T19:57:37.656Z,8.50
2022-12-01T20:00:07.479Z,7.47
2022-12-01T20:02:41.671Z,14.87
2022-12-01T20:05:11.833Z,11.30
2022-12-01T20:07:41.874Z,11.23
2022-12-01T20:10:12.195Z,16.13
2022-12-01T20:12:41.949Z,8.60
2022-12-01T20:15:11.985Z,5.27
2022-12-01T20:17:41.573Z,11.73
2022-12-01T20:20:11.530Z,6.37
2022-12-01T20:22:41.485Z,14.07
2022-12-01T20:25:12.248Z,7.00
2022-12-01T20:27:43.132Z,8.60
2022-12-01T20:30:13.418Z,10.87
2022-12-01T20:32:43.478Z,11.97
2022-12-01T20:35:14.158Z,8.97
2022-12-01T20:37:44.300Z,15.20
2022-12-01T20:40:14.126Z,14.30
2022-12-01T20:42:44.211Z,8.63
2022-12-01T20:45:13.823Z,12.23
2022-12-01T20:47:43.395Z,10.50
2022-12-01T20:50:14.183Z,11.60
2022-12-01T20:52:46.481Z,15.87
2022-12-01T20:55:16.611Z,5.33
2022-12-01T20:57:46.627Z,6.80
2022-12-01T21:00:16.430Z,8.23
2022-12-01T21:02:46.638Z,7.27
2022-12-01T21:05:16.546Z,5.90
2022-12-01T21:07:46.551Z,7.97
2022-12-01T21:10:19.961Z,8.47
2022-12-01T21:13:09.990Z,8.53
2022-12-01T21:15:51.102Z,13.53
2022-12-01T21:18:25.571Z,12.87
2022-12-01T21:20:57.112Z,10.40
2022-12-01T21:23:26.632Z,5.27
2022-12-01T21:25:56.602Z,19.93
2022-12-01T21:28:26.631Z,7.80
2022-12-01T21:31:12.899Z,6.47
2022-12-01T21:33:43.391Z,9.97
2022-12-01T21:36:18.050Z,7.17
2022-12-01T21:38:47.763Z,7.03
2022-12-01T21:41:27.368Z,5.13
2022-12-01T21:44:12.921Z,3.47
2022-12-01T21:46:43.448Z,3.10
2022-12-01T21:49:23.524Z,6.67
2022-12-01T21:51:53.316Z,5.17
2022-12-01T21:54:23.108Z,7.17
2022-12-01T21:56:53.882Z,8.57
2022-12-01T21:59:24.603Z,7.20
2022-12-01T22:01:56.074Z,6.77
2022-12-01T22:04:26.837Z,2.10
2022-12-01T22:06:57.069Z,9.00
2022-12-01T22:09:28.136Z,7.70
2022-12-01T22:11:59.866Z,4.10
2022-12-01T22:14:31.022Z,6.97
2022-12-01T22:17:13.643Z,7.97
2022-12-01T22:19:46.461Z,9.30
2022-12-01T22:22:20.857Z,6.93
2022-12-01T22:24:51.478Z,7.33
2022-12-01T22:27:31.151Z,9.50
2022-12-01T22:30:02.904Z,10.27
2022-12-01T22:32:40.860Z,10.37
2022-12-01T22:35:13.643Z,6.83
2022-12-01T22:37:47.716Z,7.57
2022-12-01T22:40:36.446Z,5.07
2022-12-01T22:43:19.473Z,4.47
2022-12-01T22:45:50.206Z,5.77
2022-12-01T22:48:31.649Z,9.00
2022-12-01T22:51:09.524Z,5.00
2022-12-01T22:53:40.488Z,6.17
2022-12-01T22:56:28.988Z,8.83
2022-12-01T22:58:59.304Z,6.30
2022-12-01T23:01:33.027Z,5.97
2022-12-01T23:04:16.348Z,9.70
2022-12-01T23:06:50.013Z,6.03
2022-12-01T23:09:19.839Z,6.90
2022-12-01T23:12:02.436Z,5.30
2022-12-01T23:14:33.168Z,5.50
2022-12-01T23:17:07.872Z,4.70
2022-12-01T23:19:38.151Z,8.83
2022-12-01T23:22:08.156Z,3.67
2022-12-01T23:24:38.677Z,4.30
2022-12-01T23:27:08.901Z,8.07
2022-12-01T23:29:39.562Z,6.67
2022-12-01T23:32:09.178Z,3.23
2022-12-01T23:34:38.759Z,4.17
2022-12-01T23:37:12.126Z,6.40
2022-12-01T23:39:42.481Z,6.20
2022-12-01T23:42:12.321Z,9.20
2022-12-01T23:44:43.393Z,9.73
2022-12-01T23:47:23.525Z,6.30
2022-12-01T23:49:56.994Z,8.20
2022-12-01T23:52:26.632Z,12.30
2022-12-01T23:54:56.607Z,12.87
2022-12-01T23:57:26.796Z,8.27
